createdAt,value
2018-11-23T00:02:46.362Z,0.20
2018-11-23T00:05:33.946Z,0.20
2018-11-23T00:08:21.837Z,0.10
2018-11-23T00:11:09.421Z,0.10
2018-11-23T00:13:56.983Z,0.00
2018-11-23T00:16:44.588Z,0.10
2018-11-23T00:19:32.145Z,0.10
2018-11-23T00:22:20.082Z,0.00
2018-11-23T00:25:08.205Z,-0.10
2018-11-23T00:27:56.162Z,-0.20
2018-11-23T00:30:43.710Z,-0.20
2018-11-23T00:33:31.339Z,-0.20
2018-11-23T00:36:18.891Z,-0.20
2018-11-23T00:39:06.509Z,-0.30
2018-11-23T00:41:54.364Z,-0.30
2018-11-23T00:44:42.238Z,-0.40
2018-11-23T00:47:29.799Z,-0.40
2018-11-23T00:50:18.646Z,-0.40
2018-11-23T00:53:06.328Z,-0.40
2018-11-23T00:55:53.856Z,-0.50
2018-11-23T00:58:41.610Z,-0.60
2018-11-23T01:01:48.375Z,-0.60
2018-11-23T01:04:36.694Z,-0.60
2018-11-23T01:07:24.551Z,-0.50
2018-11-23T01:10:13.237Z,-0.50
2018-11-23T01:13:00.832Z,-0.50
2018-11-23T01:15:48.378Z,-0.50
2018-11-23T01:18:36.233Z,-0.50
2018-11-23T01:21:23.781Z,-0.40
2018-11-23T01:24:11.429Z,-0.50
2018-11-23T01:26:59.046Z,-0.50
2018-11-23T01:29:46.701Z,-0.50
2018-11-23T01:32:34.248Z,-0.50
2018-11-23T01:35:21.859Z,-0.60
2018-11-23T01:38:09.410Z,-0.60
2018-11-23T01:40:57.128Z,-0.70
2018-11-23T01:43:44.692Z,-0.60
2018-11-23T01:46:32.276Z,-0.60
2018-11-23T01:49:19.854Z,-0.60
2018-11-23T01:52:07.689Z,-0.70
2018-11-23T01:54:55.245Z,-0.80
2018-11-23T01:57:43.552Z,-0.70
2018-11-23T02:00:31.144Z,-0.70
2018-11-23T02:03:18.979Z,-0.70
2018-11-23T02:09:13.578Z,-0.80
2018-11-23T02:11:41.689Z,-0.90
2018-11-23T02:14:09.783Z,-0.80
2018-11-23T02:16:37.920Z,-0.90
2018-11-23T02:19:06.398Z,-0.90
2018-11-23T02:21:34.831Z,-0.90
2018-11-23T02:24:03.243Z,-0.90
2018-11-23T02:26:31.340Z,-0.90
2018-11-23T02:28:59.432Z,-1.00
2018-11-23T02:31:33.518Z,-1.00
2018-11-23T02:34:01.637Z,-1.10
2018-11-23T02:36:29.722Z,-1.10
2018-11-23T02:38:57.812Z,-1.10
2018-11-23T02:41:25.934Z,-1.00
2018-11-23T02:43:54.079Z,-1.00
2018-11-23T02:46:22.189Z,-1.00
2018-11-23T02:48:50.311Z,-1.00
2018-11-23T02:51:18.425Z,-1.10
2018-11-23T02:53:47.086Z,-1.10
2018-11-23T02:56:15.226Z,-1.10
2018-11-23T02:58:43.405Z,-1.10
2018-11-23T03:01:11.590Z,-1.20
2018-11-23T03:03:40.024Z,-1.10
2018-11-23T03:06:08.121Z,-1.10
2018-11-23T03:08:36.243Z,-1.10
2018-11-23T03:11:04.336Z,-1.20
2018-11-23T03:13:32.465Z,-1.30
2018-11-23T03:16:01.040Z,-1.20
2018-11-23T03:18:29.102Z,-1.20
2018-11-23T03:20:57.199Z,-1.40
2018-11-23T03:23:25.309Z,-1.50
2018-11-23T03:25:53.489Z,-1.50
2018-11-23T03:28:21.610Z,-1.40
2018-11-23T03:30:49.740Z,-1.40
2018-11-23T03:33:17.849Z,-1.50
2018-11-23T03:35:45.983Z,-1.50
2018-11-23T03:38:14.085Z,-1.60
2018-11-23T03:40:42.235Z,-1.50
2018-11-23T03:43:10.338Z,-1.40
2018-11-23T03:45:38.467Z,-1.40
2018-11-23T03:48:06.586Z,-1.40
2018-11-23T03:50:34.691Z,-1.50
2018-11-23T03:53:02.808Z,-1.50
2018-11-23T03:55:30.912Z,-1.40
2018-11-23T03:57:59.011Z,-1.50
2018-11-23T04:00:27.123Z,-1.50
2018-11-23T04:02:55.235Z,-1.50
2018-11-23T04:05:23.328Z,-1.40
2018-11-23T04:07:51.548Z,-1.40
2018-11-23T04:10:19.655Z,-1.30
2018-11-23T04:12:47.760Z,-1.20
2018-11-23T04:15:16.108Z,-1.20
2018-11-23T04:17:44.207Z,-1.40
2018-11-23T04:20:16.559Z,-1.40
2018-11-23T04:22:44.728Z,-1.50
2018-11-23T04:25:13.413Z,-1.60
2018-11-23T04:27:41.984Z,-1.70
2018-11-23T04:30:12.094Z,-1.80
2018-11-23T04:32:40.215Z,-1.80
2018-11-23T04:35:10.472Z,-1.70
2018-11-23T04:37:38.605Z,-1.60
2018-11-23T04:40:08.222Z,-1.60
2018-11-23T04:42:36.387Z,-1.50
2018-11-23T04:45:04.772Z,-1.40
2018-11-23T04:47:32.967Z,-1.40
2018-11-23T04:50:01.395Z,-1.30
2018-11-23T04:52:29.190Z,-1.30
2018-11-23T04:54:57.310Z,-1.30
2018-11-23T04:57:25.461Z,-1.30
2018-11-23T04:59:53.945Z,-1.30
2018-11-23T05:02:22.070Z,-1.20
2018-11-23T05:04:50.390Z,-1.30
2018-11-23T05:07:18.549Z,-1.40
2018-11-23T05:09:46.716Z,-1.50
2018-11-23T05:12:14.828Z,-1.50
2018-11-23T05:14:43.000Z,-1.60
2018-11-23T05:17:11.127Z,-1.60
2018-11-23T05:19:39.249Z,-1.70
2018-11-23T05:22:07.391Z,-1.80
2018-11-23T05:24:35.520Z,-1.80
2018-11-23T05:27:03.701Z,-1.80
2018-11-23T05:29:31.833Z,-1.90
2018-11-23T05:31:59.956Z,-1.80
2018-11-23T05:34:28.194Z,-1.70
2018-11-23T05:36:56.336Z,-1.60
2018-11-23T05:39:24.455Z,-1.60
2018-11-23T05:41:52.642Z,-1.60
2018-11-23T05:44:21.037Z,-1.50
2018-11-23T05:46:49.458Z,-1.50
2018-11-23T05:49:17.954Z,-1.50
2018-11-23T05:51:46.443Z,-1.40
2018-11-23T05:54:14.574Z,-1.40
2018-11-23T05:56:43.027Z,-1.40
2018-11-23T05:59:11.545Z,-1.50
2018-11-23T06:01:39.698Z,-1.50
2018-11-23T06:04:08.205Z,-1.60
2018-11-23T06:06:42.244Z,-1.60
2018-11-23T06:09:05.884Z,-1.50
2018-11-23T06:11:34.013Z,-1.50
2018-11-23T06:14:02.139Z,-1.50
2018-11-23T06:16:30.267Z,-1.60
2018-11-23T06:18:58.418Z,-1.70
2018-11-23T06:21:26.581Z,-1.70
2018-11-23T06:23:54.911Z,-1.60
2018-11-23T06:26:24.961Z,-1.70
2018-11-23T06:28:53.074Z,-1.70
2018-11-23T06:31:21.217Z,-1.80
2018-11-23T06:33:49.882Z,-1.80
2018-11-23T06:36:18.350Z,-1.80
2018-11-23T06:38:46.772Z,-1.70
2018-11-23T06:41:14.918Z,-1.70
2018-11-23T06:43:43.058Z,-1.60
2018-11-23T06:46:12.079Z,-1.60
2018-11-23T06:48:40.508Z,-1.60
2018-11-23T06:51:08.819Z,-1.60
2018-11-23T06:53:36.940Z,-1.60
2018-11-23T06:56:05.517Z,-1.60
2018-11-23T06:58:33.639Z,-1.70
2018-11-23T07:01:01.777Z,-1.70
2018-11-23T07:03:29.901Z,-1.70
2018-11-23T07:05:58.593Z,-1.80
2018-11-23T07:08:26.768Z,-1.90
2018-11-23T07:10:58.401Z,-1.90
2018-11-23T07:13:27.091Z,-1.90
2018-11-23T07:15:55.223Z,-1.90
2018-11-23T07:18:23.383Z,-1.90
2018-11-23T07:20:51.507Z,-1.90
2018-11-23T07:23:19.624Z,-1.80
2018-11-23T07:25:47.748Z,-1.70
2018-11-23T07:28:15.893Z,-1.70
2018-11-23T07:30:44.415Z,-1.60
2018-11-23T07:33:12.590Z,-1.60
2018-11-23T07:35:41.025Z,-1.50
2018-11-23T07:38:09.166Z,-1.40
2018-11-23T07:41:14.112Z,-1.40
2018-11-23T07:43:42.544Z,-1.30
2018-11-23T07:46:10.713Z,-1.30
2018-11-23T07:48:38.833Z,-1.30
2018-11-23T07:51:07.017Z,-1.30
2018-11-23T07:53:35.493Z,-1.30
2018-11-23T07:56:03.623Z,-1.30
2018-11-23T07:58:31.762Z,-1.30
2018-11-23T08:00:59.894Z,-1.30
2018-11-23T08:03:28.015Z,-1.40
2018-11-23T08:05:56.758Z,-1.40
2018-11-23T08:08:24.882Z,-1.40
2018-11-23T08:11:12.449Z,-1.30
2018-11-23T08:14:00.270Z,-1.20
2018-11-23T08:16:47.848Z,-1.20
2018-11-23T08:19:35.705Z,-1.10
2018-11-23T08:22:23.305Z,-1.10
2018-11-23T08:25:11.906Z,-1.10
2018-11-23T08:27:59.516Z,-1.00
2018-11-23T08:30:47.082Z,-0.90
2018-11-23T08:33:34.674Z,-0.90
2018-11-23T08:36:22.271Z,-0.80
2018-11-23T08:39:10.622Z,-0.80
2018-11-23T08:41:58.205Z,-0.80
2018-11-23T08:44:45.785Z,-0.70
2018-11-23T08:47:33.387Z,-0.70
2018-11-23T08:50:25.319Z,-0.70
2018-11-23T08:53:12.884Z,-0.70
2018-11-23T08:56:00.461Z,-0.60
2018-11-23T08:58:48.016Z,-0.70
2018-11-23T09:04:29.666Z,-0.60
2018-11-23T09:07:17.024Z,-0.60
2018-11-23T09:12:59.525Z,-0.50
2018-11-23T09:18:40.345Z,-0.40
2018-11-23T09:24:21.495Z,-0.30
2018-11-23T09:27:09.050Z,-0.30
2018-11-23T09:29:56.638Z,-0.20
2018-11-23T09:32:44.538Z,-0.20
2018-11-23T09:35:32.157Z,-0.20
2018-11-23T09:38:19.713Z,-0.10
2018-11-23T09:41:07.339Z,-0.10
2018-11-23T09:43:54.940Z,-0.10
2018-11-23T09:49:36.189Z,0.00
2018-11-23T09:52:23.765Z,0.00
2018-11-23T09:55:11.366Z,0.10
2018-11-23T10:00:52.042Z,0.20
2018-11-23T10:03:39.615Z,0.30
2018-11-23T10:06:27.240Z,0.40
2018-11-23T10:09:14.729Z,0.50
2018-11-23T10:12:02.277Z,0.80
2018-11-23T10:14:50.180Z,1.10
2018-11-23T10:17:37.732Z,1.30
2018-11-23T10:20:26.612Z,1.50
2018-11-23T10:23:14.169Z,1.60
2018-11-23T10:26:01.736Z,1.70
2018-11-23T10:28:49.279Z,1.70
2018-11-23T10:31:36.847Z,1.70
2018-11-23T10:34:24.414Z,1.70
2018-11-23T10:37:12.032Z,1.80
2018-11-23T10:42:52.715Z,1.90
2018-11-23T10:45:40.302Z,1.90
2018-11-23T10:48:28.093Z,2.00
2018-11-23T10:51:15.752Z,2.00
2018-11-23T10:54:03.298Z,2.10
2018-11-23T10:56:50.907Z,2.30
2018-11-23T10:59:38.480Z,2.30
2018-11-23T11:02:45.224Z,2.40
2018-11-23T11:05:52.046Z,2.40
2018-11-23T11:08:39.923Z,2.50
2018-11-23T11:11:27.486Z,2.60
2018-11-23T11:14:15.057Z,2.70
2018-11-23T11:17:02.629Z,2.80
2018-11-23T11:19:50.177Z,2.80
2018-11-23T11:22:38.112Z,2.90
2018-11-23T11:25:25.664Z,3.00
2018-11-23T11:28:13.252Z,3.10
2018-11-23T11:31:00.804Z,3.10
2018-11-23T11:33:48.369Z,3.20
2018-11-23T11:36:35.924Z,3.20
2018-11-23T11:39:23.502Z,3.30
2018-11-23T11:42:11.050Z,3.40
2018-11-23T11:44:58.655Z,3.50
2018-11-23T11:47:46.727Z,3.60
2018-11-23T11:50:34.301Z,3.70
2018-11-23T11:53:21.853Z,3.80
2018-11-23T11:56:09.425Z,3.80
2018-11-23T11:58:56.974Z,3.80
2018-11-23T12:01:44.556Z,3.90
2018-11-23T12:04:32.115Z,4.00
2018-11-23T12:07:19.680Z,4.10
2018-11-23T12:10:08.277Z,4.20
2018-11-23T12:12:55.861Z,4.20
2018-11-23T12:15:43.412Z,4.40
2018-11-23T12:18:30.985Z,4.50
2018-11-23T12:21:18.536Z,4.60
2018-11-23T12:27:00.356Z,4.90
2018-11-23T12:29:47.922Z,4.90
2018-11-23T12:32:35.475Z,4.80
2018-11-23T12:35:23.455Z,4.80
2018-11-23T12:38:11.001Z,4.80
2018-11-23T12:40:58.581Z,4.80
2018-11-23T12:43:46.243Z,4.90
2018-11-23T12:46:33.820Z,5.00
2018-11-23T12:49:21.392Z,5.00
2018-11-23T12:51:49.504Z,5.00
2018-11-23T12:54:37.102Z,5.00
2018-11-23T12:57:24.755Z,5.10
2018-11-23T13:00:16.960Z,5.00
2018-11-23T13:03:05.149Z,5.00
2018-11-23T13:05:52.693Z,5.10
2018-11-23T13:08:40.261Z,5.10
2018-11-23T13:11:27.850Z,5.10
2018-11-23T13:14:15.434Z,5.10
2018-11-23T13:17:03.011Z,5.10
2018-11-23T13:19:50.613Z,5.10
2018-11-23T13:25:32.726Z,5.10
2018-11-23T13:28:20.312Z,5.20
2018-11-23T13:31:07.857Z,5.40
2018-11-23T13:33:55.964Z,5.50
2018-11-23T13:36:43.562Z,5.70
2018-11-23T13:39:31.181Z,5.90
2018-11-23T13:42:18.707Z,6.10
2018-11-23T13:45:06.787Z,6.20
2018-11-23T13:47:54.343Z,6.20
2018-11-23T13:50:41.908Z,6.20
2018-11-23T13:53:29.464Z,6.10
2018-11-23T13:56:17.033Z,6.00
2018-11-23T13:59:04.729Z,5.90
2018-11-23T14:01:52.293Z,5.80
2018-11-23T14:04:39.885Z,5.60
2018-11-23T14:07:27.444Z,5.60
2018-11-23T14:10:16.358Z,5.50
2018-11-23T14:13:11.013Z,5.60
2018-11-23T14:18:45.664Z,5.60
2018-11-23T14:21:33.235Z,5.60
2018-11-23T14:24:20.786Z,5.50
2018-11-23T14:27:08.367Z,5.40
2018-11-23T14:29:55.939Z,5.40
2018-11-23T14:32:43.549Z,5.30
2018-11-23T14:35:32.046Z,5.20
2018-11-23T14:38:19.596Z,5.00
2018-11-23T14:41:07.173Z,4.90
2018-11-23T14:43:54.725Z,4.80
2018-11-23T14:46:42.297Z,4.70
2018-11-23T14:49:29.869Z,4.60
2018-11-23T14:52:17.419Z,4.50
2018-11-23T14:55:05.604Z,4.40
2018-11-23T14:57:53.436Z,4.30
2018-11-23T15:00:41.140Z,4.20
2018-11-23T15:03:28.727Z,4.20
2018-11-23T15:06:16.293Z,4.10
2018-11-23T15:09:05.393Z,4.00
2018-11-23T15:11:52.974Z,3.90
2018-11-23T15:14:40.557Z,3.90
2018-11-23T15:17:28.145Z,3.80
2018-11-23T15:20:19.498Z,3.80
2018-11-23T15:23:07.842Z,3.70
2018-11-23T15:25:55.424Z,3.70
2018-11-23T15:28:42.974Z,3.60
2018-11-23T15:31:30.551Z,3.60
2018-11-23T15:34:18.121Z,3.50
2018-11-23T15:37:05.782Z,3.40
2018-11-23T15:39:53.349Z,3.40
2018-11-23T15:42:40.899Z,3.30
2018-11-23T15:45:29.597Z,3.20
2018-11-23T15:48:17.174Z,3.10
2018-11-23T15:51:24.096Z,2.90
2018-11-23T15:54:11.669Z,2.90
2018-11-23T15:56:59.265Z,2.80
2018-11-23T15:59:46.802Z,2.70
2018-11-23T16:02:34.399Z,2.60
2018-11-23T16:05:22.070Z,2.60
2018-11-23T16:08:29.997Z,2.50
2018-11-23T16:11:16.576Z,2.50
2018-11-23T16:14:04.456Z,2.50
2018-11-23T16:16:52.017Z,2.40
2018-11-23T16:19:39.564Z,2.40
2018-11-23T16:22:27.130Z,2.40
2018-11-23T16:25:14.703Z,2.40
2018-11-23T16:28:03.523Z,2.50
2018-11-23T16:30:51.454Z,2.50
2018-11-23T16:33:39.004Z,2.60
2018-11-23T16:36:26.572Z,2.70
2018-11-23T16:39:14.122Z,2.70
2018-11-23T16:42:01.709Z,2.70
2018-11-23T16:44:49.259Z,2.70
2018-11-23T16:47:37.078Z,2.80
2018-11-23T16:50:24.602Z,2.80
2018-11-23T16:53:12.199Z,2.80
2018-11-23T16:55:59.750Z,2.80
2018-11-23T16:58:47.321Z,2.70
2018-11-23T17:01:35.132Z,2.70
2018-11-23T17:04:22.709Z,2.60
2018-11-23T17:07:13.063Z,2.50
2018-11-23T17:09:57.813Z,2.50
2018-11-23T17:12:45.532Z,2.40
2018-11-23T17:15:33.133Z,2.40
2018-11-23T17:18:20.695Z,2.40
2018-11-23T17:21:08.264Z,2.40
2018-11-23T17:23:55.821Z,2.30
2018-11-23T17:26:43.392Z,2.30
2018-11-23T17:29:30.949Z,2.20
2018-11-23T17:32:18.521Z,2.10
2018-11-23T17:35:06.473Z,2.10
2018-11-23T17:37:54.041Z,2.00
2018-11-23T17:40:42.125Z,2.10
2018-11-23T17:43:29.678Z,2.00
2018-11-23T17:46:17.249Z,2.00
2018-11-23T17:49:04.796Z,1.90
2018-11-23T17:51:52.372Z,1.90
2018-11-23T17:54:39.968Z,1.80
2018-11-23T17:57:27.541Z,1.70
2018-11-23T18:00:39.373Z,1.70
2018-11-23T18:03:22.646Z,1.80
2018-11-23T18:06:10.239Z,1.90
2018-11-23T18:08:57.808Z,1.90
2018-11-23T18:11:45.391Z,2.00
2018-11-23T18:14:33.058Z,2.00
2018-11-23T18:20:18.056Z,2.20
2018-11-23T18:23:05.842Z,2.30
2018-11-23T18:25:53.413Z,2.40
2018-11-23T18:28:40.977Z,2.50
2018-11-23T18:31:28.591Z,2.50
2018-11-23T18:34:16.152Z,2.60
2018-11-23T18:37:03.705Z,2.80
2018-11-23T18:39:51.278Z,2.80
2018-11-23T18:42:38.861Z,2.80
2018-11-23T18:45:26.431Z,2.80
2018-11-23T18:48:13.999Z,2.80
2018-11-23T18:51:01.563Z,2.80
2018-11-23T18:53:49.130Z,2.80
2018-11-23T18:56:36.708Z,2.80
2018-11-23T18:59:24.269Z,2.80
2018-11-23T19:02:11.838Z,2.80
2018-11-23T19:04:59.425Z,2.80
2018-11-23T19:07:46.992Z,2.80
2018-11-23T19:10:34.564Z,2.70
2018-11-23T19:13:22.145Z,2.70
2018-11-23T19:16:09.707Z,2.60
2018-11-23T19:18:57.280Z,2.60
2018-11-23T19:21:44.842Z,2.50
2018-11-23T19:24:32.405Z,2.50
2018-11-23T19:27:20.023Z,2.50
2018-11-23T19:30:00.786Z,2.40
2018-11-23T19:32:41.312Z,2.40
2018-11-23T19:35:21.665Z,2.30
2018-11-23T19:38:02.404Z,2.20
2018-11-23T19:40:42.578Z,2.20
2018-11-23T19:43:22.766Z,2.10
2018-11-23T19:46:02.998Z,2.00
2018-11-23T19:48:44.116Z,2.00
2018-11-23T19:51:24.357Z,1.90
2018-11-23T19:54:04.866Z,1.90
2018-11-23T19:56:45.360Z,1.90
2018-11-23T19:59:26.413Z,1.80
2018-11-23T20:02:06.616Z,1.70
2018-11-23T20:04:47.571Z,1.60
2018-11-23T20:07:27.944Z,1.60
2018-11-23T20:10:08.941Z,1.60
2018-11-23T20:12:49.841Z,1.60
2018-11-23T20:15:30.287Z,1.60
2018-11-23T20:18:10.508Z,1.50
2018-11-23T20:20:50.885Z,1.40
2018-11-23T20:23:31.199Z,1.40
2018-11-23T20:26:12.211Z,1.30
2018-11-23T20:28:53.259Z,1.30
2018-11-23T20:31:34.231Z,1.30
2018-11-23T20:34:14.488Z,1.30
2018-11-23T20:36:55.683Z,1.30
2018-11-23T20:39:36.491Z,1.30
2018-11-23T20:42:17.370Z,1.30
2018-11-23T20:44:55.997Z,1.30
2018-11-23T20:47:43.580Z,1.30
2018-11-23T20:50:31.153Z,1.40
2018-11-23T20:53:18.704Z,1.40
2018-11-23T20:56:06.301Z,1.30
2018-11-23T20:58:53.854Z,1.30
2018-11-23T21:01:41.506Z,1.30
2018-11-23T21:04:29.059Z,1.20
2018-11-23T21:07:16.634Z,1.20
2018-11-23T21:10:05.337Z,1.10
2018-11-23T21:12:53.112Z,1.10
2018-11-23T21:15:40.693Z,1.00
2018-11-23T21:18:28.508Z,1.00
2018-11-23T21:21:22.946Z,1.00
2018-11-23T21:24:10.592Z,1.00
2018-11-23T21:26:58.154Z,0.90
2018-11-23T21:29:45.728Z,0.80
2018-11-23T21:32:33.311Z,0.80
2018-11-23T21:35:20.946Z,0.80
2018-11-23T21:38:08.627Z,0.70
2018-11-23T21:40:56.184Z,0.70
2018-11-23T21:43:43.763Z,0.70
2018-11-23T21:46:31.326Z,0.70
2018-11-23T21:49:18.900Z,0.70
2018-11-23T21:52:06.460Z,0.70
2018-11-23T21:57:47.879Z,0.70
2018-11-23T22:00:35.488Z,0.70
2018-11-23T22:03:15.931Z,0.70
2018-11-23T22:05:57.056Z,0.60
2018-11-23T22:08:37.347Z,0.60
2018-11-23T22:11:17.795Z,0.60
2018-11-23T22:13:58.598Z,0.50
2018-11-23T22:16:39.431Z,0.50
2018-11-23T22:19:20.438Z,0.50
2018-11-23T22:22:00.931Z,0.50
2018-11-23T22:24:41.661Z,0.50
2018-11-23T22:27:22.141Z,0.50
2018-11-23T22:30:02.501Z,0.50
2018-11-23T22:32:43.079Z,0.50
2018-11-23T22:35:23.298Z,0.50
2018-11-23T22:38:03.671Z,0.40
2018-11-23T22:40:44.506Z,0.40
2018-11-23T22:43:24.915Z,0.40
2018-11-23T22:46:05.342Z,0.40
2018-11-23T22:48:45.719Z,0.40
2018-11-23T22:51:26.627Z,0.40
2018-11-23T22:54:07.061Z,0.40
2018-11-23T22:56:47.649Z,0.40
2018-11-23T22:59:28.013Z,0.30
2018-11-23T23:02:08.774Z,0.30
2018-11-23T23:04:47.387Z,0.30
2018-11-23T23:07:34.959Z,0.30
2018-11-23T23:10:22.502Z,0.30
2018-11-23T23:16:03.896Z,0.30
2018-11-23T23:18:51.464Z,0.30
2018-11-23T23:21:39.005Z,0.30
2018-11-23T23:24:26.598Z,0.40
2018-11-23T23:26:54.725Z,0.40
2018-11-23T23:29:42.283Z,0.40
2018-11-23T23:32:29.908Z,0.40
2018-11-23T23:35:17.676Z,0.50
2018-11-23T23:38:05.594Z,0.50
2018-11-23T23:40:53.149Z,0.60
2018-11-23T23:46:34.554Z,0.80
2018-11-23T23:52:15.707Z,0.90
2018-11-23T23:55:03.301Z,0.90
2018-11-23T23:57:50.868Z,1.00
